Terminal Aerodrome Forecast
Issued by NWS Charleston, WV

Home | Current Version | Previous Version | Text Only | Print | Product List | Glossary On
Versions: 1 2 3 4 5 6 7 8 9 10 11 12 13 14 15 16 17 18 19 20 21 22 23 24 25 26 27 28 29
132
FTUS41 KRLX 281013 AAB
TAFHTS
TAF AMD
KHTS 281013Z 2810/2906 VRB03KT 2SM BR VCSH BKN035
     FM281400 27005KT P6SM VCSH BKN015
     FM282000 31005KT P6SM BKN035
     FM290200 35004KT P6SM BKN015=

USA.gov is the U.S. government's official web portal to all federal, state and local government web resources and services.